sensor_id;sensor_type;location;lat;lon;timestamp;pressure;altitude;pressure_sealevel;temperature;humidity
30967;BME280;17649;51.836;8.330;2023-09-07T00:02:52;101591.44;;;17.88;100.00
30967;BME280;17649;51.836;8.330;2023-09-07T00:05:53;101592.88;;;17.92;100.00
30967;BME280;17649;51.836;8.330;2023-09-07T00:08:53;101585.13;;;17.91;100.00
30967;BME280;17649;51.836;8.330;2023-09-07T00:11:55;101588.16;;;17.84;100.00
30967;BME280;17649;51.836;8.330;2023-09-07T00:15:00;101583.88;;;17.83;100.00
30967;BME280;17649;51.836;8.330;2023-09-07T00:18:00;101588.59;;;17.78;100.00
30967;BME280;17649;51.836;8.330;2023-09-07T00:21:01;101587.16;;;17.74;100.00
30967;BME280;17649;51.836;8.330;2023-09-07T00:24:02;101581.69;;;17.65;100.00
30967;BME280;17649;51.836;8.330;2023-09-07T00:27:05;101591.44;;;17.63;100.00
30967;BME280;17649;51.836;8.330;2023-09-07T00:30:07;101589.03;;;17.59;100.00
30967;BME280;17649;51.836;8.330;2023-09-07T00:33:10;101585.97;;;17.53;100.00
30967;BME280;17649;51.836;8.330;2023-09-07T00:36:12;101587.25;;;17.47;100.00
30967;BME280;17649;51.836;8.330;2023-09-07T00:39:12;101584.00;;;17.44;100.00
30967;BME280;17649;51.836;8.330;2023-09-07T00:42:13;101582.53;;;17.40;100.00
30967;BME280;17649;51.836;8.330;2023-09-07T00:45:13;101587.47;;;17.32;100.00
30967;BME280;17649;51.836;8.330;2023-09-07T00:48:15;101594.34;;;17.20;100.00
30967;BME280;17649;51.836;8.330;2023-09-07T00:51:16;101584.72;;;17.08;100.00
30967;BME280;17649;51.836;8.330;2023-09-07T00:54:17;101588.28;;;17.07;100.00
30967;BME280;17649;51.836;8.330;2023-09-07T00:57:18;101583.25;;;17.04;100.00
30967;BME280;17649;51.836;8.330;2023-09-07T01:00:19;101583.97;;;17.06;100.00
30967;BME280;17649;51.836;8.330;2023-09-07T01:03:19;101587.97;;;17.11;100.00
30967;BME280;17649;51.836;8.330;2023-09-07T01:06:29;101579.78;;;17.03;100.00
30967;BME280;17649;51.836;8.330;2023-09-07T01:09:32;101583.66;;;16.97;100.00
30967;BME280;17649;51.836;8.330;2023-09-07T01:12:34;101586.19;;;16.99;100.00
30967;BME280;17649;51.836;8.330;2023-09-07T01:15:34;101582.84;;;16.97;100.00
30967;BME280;17649;51.836;8.330;2023-09-07T01:18:35;101581.13;;;16.96;100.00
30967;BME280;17649;51.836;8.330;2023-09-07T01:24:41;101574.22;;;16.95;100.00
30967;BME280;17649;51.836;8.330;2023-09-07T01:27:42;101572.53;;;16.81;100.00
30967;BME280;17649;51.836;8.330;2023-09-07T01:30:45;101573.16;;;16.72;100.00
30967;BME280;17649;51.836;8.330;2023-09-07T01:33:45;101571.19;;;16.61;100.00
30967;BME280;17649;51.836;8.330;2023-09-07T01:36:46;101567.19;;;16.43;100.00
30967;BME280;17649;51.836;8.330;2023-09-07T01:39:46;101574.47;;;16.38;100.00
30967;BME280;17649;51.836;8.330;2023-09-07T01:42:46;101571.56;;;16.43;100.00
30967;BME280;17649;51.836;8.330;2023-09-07T01:45:47;101575.00;;;16.43;100.00
30967;BME280;17649;51.836;8.330;2023-09-07T01:48:47;101564.06;;;16.51;100.00
30967;BME280;17649;51.836;8.330;2023-09-07T01:51:47;101566.66;;;16.51;100.00
30967;BME280;17649;51.836;8.330;2023-09-07T01:54:52;101568.16;;;16.55;100.00
30967;BME280;17649;51.836;8.330;2023-09-07T02:00:59;101564.25;;;16.48;100.00
30967;BME280;17649;51.836;8.330;2023-09-07T02:03:59;101564.25;;;16.48;100.00
30967;BME280;17649;51.836;8.330;2023-09-07T02:07:00;101566.97;;;16.46;100.00
30967;BME280;17649;51.836;8.330;2023-09-07T02:10:01;101563.72;;;16.43;100.00
30967;BME280;17649;51.836;8.330;2023-09-07T02:13:03;101562.78;;;16.44;100.00
30967;BME280;17649;51.836;8.330;2023-09-07T02:16:04;101566.53;;;16.39;100.00
30967;BME280;17649;51.836;8.330;2023-09-07T02:19:05;101566.66;;;16.38;100.00
30967;BME280;17649;51.836;8.330;2023-09-07T02:22:07;101567.13;;;16.30;100.00
30967;BME280;17649;51.836;8.330;2023-09-07T02:25:09;101563.78;;;16.28;100.00
30967;BME280;17649;51.836;8.330;2023-09-07T02:28:09;101567.22;;;16.29;100.00
30967;BME280;17649;51.836;8.330;2023-09-07T02:31:09;101563.25;;;16.23;100.00
30967;BME280;17649;51.836;8.330;2023-09-07T02:34:10;101565.03;;;16.23;100.00
30967;BME280;17649;51.836;8.330;2023-09-07T02:37:10;101567.38;;;16.13;100.00
30967;BME280;17649;51.836;8.330;2023-09-07T02:40:11;101559.16;;;16.05;100.00
30967;BME280;17649;51.836;8.330;2023-09-07T02:43:12;101564.28;;;16.06;100.00
30967;BME280;17649;51.836;8.330;2023-09-07T02:46:12;101567.41;;;15.99;100.00
30967;BME280;17649;51.836;8.330;2023-09-07T02:49:13;101560.69;;;15.95;100.00
30967;BME280;17649;51.836;8.330;2023-09-07T02:52:13;101566.09;;;15.92;100.00
30967;BME280;17649;51.836;8.330;2023-09-07T02:55:14;101558.94;;;15.95;100.00
30967;BME280;17649;51.836;8.330;2023-09-07T02:58:15;101564.03;;;15.97;100.00
30967;BME280;17649;51.836;8.330;2023-09-07T03:01:16;101566.66;;;15.97;100.00
30967;BME280;17649;51.836;8.330;2023-09-07T03:04:19;101559.97;;;15.93;100.00
30967;BME280;17649;51.836;8.330;2023-09-07T03:07:19;101563.56;;;15.90;100.00
30967;BME280;17649;51.836;8.330;2023-09-07T03:10:20;101560.31;;;16.01;100.00
30967;BME280;17649;51.836;8.330;2023-09-07T03:13:20;101562.38;;;15.96;100.00
30967;BME280;17649;51.836;8.330;2023-09-07T03:16:20;101559.13;;;15.92;100.00
30967;BME280;17649;51.836;8.330;2023-09-07T03:19:21;101557.06;;;15.83;100.00
30967;BME280;17649;51.836;8.330;2023-09-07T03:22:22;101556.78;;;15.73;100.00
30967;BME280;17649;51.836;8.330;2023-09-07T03:25:23;101550.66;;;15.60;100.00
30967;BME280;17649;51.836;8.330;2023-09-07T03:28:24;101554.69;;;15.66;100.00
30967;BME280;17649;51.836;8.330;2023-09-07T03:31:25;101551.78;;;15.70;100.00
30967;BME280;17649;51.836;8.330;2023-09-07T03:34:25;101557.47;;;15.63;100.00
30967;BME280;17649;51.836;8.330;2023-09-07T03:37:27;101562.69;;;15.63;100.00
30967;BME280;17649;51.836;8.330;2023-09-07T03:40:28;101561.00;;;15.47;100.00
30967;BME280;17649;51.836;8.330;2023-09-07T03:43:28;101560.13;;;15.47;100.00
30967;BME280;17649;51.836;8.330;2023-09-07T03:46:29;101562.38;;;15.53;100.00
30967;BME280;17649;51.836;8.330;2023-09-07T03:49:29;101559.03;;;15.51;100.00
30967;BME280;17649;51.836;8.330;2023-09-07T03:52:29;101558.28;;;15.49;100.00
30967;BME280;17649;51.836;8.330;2023-09-07T03:55:30;101567.59;;;15.39;100.00
30967;BME280;17649;51.836;8.330;2023-09-07T03:58:30;101568.97;;;15.44;100.00
30967;BME280;17649;51.836;8.330;2023-09-07T04:01:30;101569.81;;;15.45;100.00
30967;BME280;17649;51.836;8.330;2023-09-07T04:04:31;101570.66;;;15.45;100.00
30967;BME280;17649;51.836;8.330;2023-09-07T04:07:31;101577.19;;;15.38;100.00
30967;BME280;17649;51.836;8.330;2023-09-07T04:10:36;101573.00;;;15.36;100.00
30967;BME280;17649;51.836;8.330;2023-09-07T04:13:36;101567.59;;;15.39;100.00
30967;BME280;17649;51.836;8.330;2023-09-07T04:16:37;101562.38;;;15.39;100.00
30967;BME280;17649;51.836;8.330;2023-09-07T04:19:38;101562.91;;;15.30;100.00
30967;BME280;17649;51.836;8.330;2023-09-07T04:22:39;101556.22;;;15.26;100.00
30967;BME280;17649;51.836;8.330;2023-09-07T04:25:40;101565.81;;;15.25;100.00
30967;BME280;17649;51.836;8.330;2023-09-07T04:28:41;101561.44;;;15.26;100.00
30967;BME280;17649;51.836;8.330;2023-09-07T04:31:41;101555.94;;;15.30;100.00
30967;BME280;17649;51.836;8.330;2023-09-07T04:34:41;101549.88;;;15.30;100.00
30967;BME280;17649;51.836;8.330;2023-09-07T04:37:42;101554.72;;;15.21;100.00
30967;BME280;17649;51.836;8.330;2023-09-07T04:40:45;101556.19;;;15.11;100.00
30967;BME280;17649;51.836;8.330;2023-09-07T04:43:45;101557.88;;;15.12;100.00
30967;BME280;17649;51.836;8.330;2023-09-07T04:46:46;101562.78;;;15.17;100.00
30967;BME280;17649;51.836;8.330;2023-09-07T04:49:50;101561.81;;;15.19;100.00
30967;BME280;17649;51.836;8.330;2023-09-07T04:52:51;101558.34;;;15.19;100.00
30967;BME280;17649;51.836;8.330;2023-09-07T04:55:51;101560.97;;;15.19;100.00
30967;BME280;17649;51.836;8.330;2023-09-07T04:58:51;101572.59;;;15.28;100.00
30967;BME280;17649;51.836;8.330;2023-09-07T05:01:52;101572.31;;;15.32;100.00
30967;BME280;17649;51.836;8.330;2023-09-07T05:04:52;101570.91;;;15.12;100.00
30967;BME280;17649;51.836;8.330;2023-09-07T05:07:52;101572.78;;;15.25;100.00
30967;BME280;17649;51.836;8.330;2023-09-07T05:10:58;101574.19;;;15.30;100.00
30967;BME280;17649;51.836;8.330;2023-09-07T05:13:58;101576.44;;;15.36;100.00
30967;BME280;17649;51.836;8.330;2023-09-07T05:16:59;101573.44;;;15.42;100.00
30967;BME280;17649;51.836;8.330;2023-09-07T05:20:00;101577.53;;;15.46;100.00
30967;BME280;17649;51.836;8.330;2023-09-07T05:23:01;101584.19;;;15.52;100.00
30967;BME280;17649;51.836;8.330;2023-09-07T05:26:01;101587.06;;;15.62;100.00
30967;BME280;17649;51.836;8.330;2023-09-07T05:29:01;101579.94;;;15.65;100.00
30967;BME280;17649;51.836;8.330;2023-09-07T05:32:02;101581.94;;;15.74;100.00
30967;BME280;17649;51.836;8.330;2023-09-07T05:35:02;101575.25;;;15.70;100.00
30967;BME280;17649;51.836;8.330;2023-09-07T05:38:05;101582.53;;;15.79;100.00
30967;BME280;17649;51.836;8.330;2023-09-07T05:41:06;101583.44;;;15.93;100.00
30967;BME280;17649;51.836;8.330;2023-09-07T05:44:07;101584.41;;;15.77;100.00
30967;BME280;17649;51.836;8.330;2023-09-07T05:47:08;101579.59;;;15.98;100.00
30967;BME280;17649;51.836;8.330;2023-09-07T05:50:09;101586.38;;;16.15;100.00
30967;BME280;17649;51.836;8.330;2023-09-07T05:53:10;101588.84;;;16.31;100.00
30967;BME280;17649;51.836;8.330;2023-09-07T05:56:10;101588.38;;;16.38;100.00
30967;BME280;17649;51.836;8.330;2023-09-07T05:59:10;101583.09;;;16.53;100.00
30967;BME280;17649;51.836;8.330;2023-09-07T06:02:11;101585.59;;;16.68;100.00
30967;BME280;17649;51.836;8.330;2023-09-07T06:05:12;101584.47;;;16.85;100.00
30967;BME280;17649;51.836;8.330;2023-09-07T06:08:13;101587.13;;;16.98;100.00
30967;BME280;17649;51.836;8.330;2023-09-07T06:11:13;101593.09;;;17.13;100.00
30967;BME280;17649;51.836;8.330;2023-09-07T06:14:13;101593.53;;;17.32;100.00
30967;BME280;17649;51.836;8.330;2023-09-07T06:17:14;101591.22;;;17.53;100.00
30967;BME280;17649;51.836;8.330;2023-09-07T06:20:16;101595.19;;;17.84;100.00
30967;BME280;17649;51.836;8.330;2023-09-07T06:23:18;101602.69;;;18.38;100.00
30967;BME280;17649;51.836;8.330;2023-09-07T06:26:18;101605.25;;;18.51;100.00
30967;BME280;17649;51.836;8.330;2023-09-07T06:29:21;101587.16;;;18.59;100.00
30967;BME280;17649;51.836;8.330;2023-09-07T06:32:21;101587.25;;;18.70;100.00
30967;BME280;17649;51.836;8.330;2023-09-07T06:35:22;101578.84;;;18.77;100.00
30967;BME280;17649;51.836;8.330;2023-09-07T06:38:25;101577.31;;;18.86;100.00
30967;BME280;17649;51.836;8.330;2023-09-07T06:41:25;101580.44;;;19.02;100.00
30967;BME280;17649;51.836;8.330;2023-09-07T06:44:26;101580.22;;;19.17;100.00
30967;BME280;17649;51.836;8.330;2023-09-07T06:47:26;101585.78;;;19.36;100.00
30967;BME280;17649;51.836;8.330;2023-09-07T06:50:30;101584.38;;;19.54;100.00
30967;BME280;17649;51.836;8.330;2023-09-07T06:53:40;101585.94;;;19.79;100.00
30967;BME280;17649;51.836;8.330;2023-09-07T06:56:41;101582.31;;;19.91;100.00
30967;BME280;17649;51.836;8.330;2023-09-07T06:59:43;101579.91;;;20.11;100.00
30967;BME280;17649;51.836;8.330;2023-09-07T07:02:43;101576.06;;;20.26;100.00
30967;BME280;17649;51.836;8.330;2023-09-07T07:05:44;101574.31;;;20.36;100.00
30967;BME280;17649;51.836;8.330;2023-09-07T07:08:44;101579.19;;;20.52;100.00
30967;BME280;17649;51.836;8.330;2023-09-07T07:11:44;101573.78;;;20.65;100.00
30967;BME280;17649;51.836;8.330;2023-09-07T07:14:45;101564.69;;;20.69;100.00
30967;BME280;17649;51.836;8.330;2023-09-07T07:17:45;101566.50;;;20.89;100.00
30967;BME280;17649;51.836;8.330;2023-09-07T07:20:45;101561.34;;;21.08;100.00
30967;BME280;17649;51.836;8.330;2023-09-07T07:23:46;101558.06;;;21.16;100.00
30967;BME280;17649;51.836;8.330;2023-09-07T07:26:46;101558.00;;;21.27;100.00
30967;BME280;17649;51.836;8.330;2023-09-07T07:29:46;101562.91;;;21.41;100.00
30967;BME280;17649;51.836;8.330;2023-09-07T07:32:47;101564.91;;;21.49;100.00
30967;BME280;17649;51.836;8.330;2023-09-07T07:35:47;101568.09;;;21.53;100.00
30967;BME280;17649;51.836;8.330;2023-09-07T07:38:48;101575.81;;;21.75;100.00
30967;BME280;17649;51.836;8.330;2023-09-07T07:41:48;101578.66;;;21.93;100.00
30967;BME280;17649;51.836;8.330;2023-09-07T07:44:48;101575.19;;;21.92;100.00
30967;BME280;17649;51.836;8.330;2023-09-07T07:47:49;101574.81;;;22.07;100.00
30967;BME280;17649;51.836;8.330;2023-09-07T07:50:50;101573.16;;;22.15;100.00
30967;BME280;17649;51.836;8.330;2023-09-07T07:53:50;101567.34;;;22.31;100.00
30967;BME280;17649;51.836;8.330;2023-09-07T07:56:50;101565.13;;;22.46;100.00
30967;BME280;17649;51.836;8.330;2023-09-07T07:59:51;101557.09;;;22.57;100.00
30967;BME280;17649;51.836;8.330;2023-09-07T08:02:51;101551.00;;;22.66;100.00
30967;BME280;17649;51.836;8.330;2023-09-07T08:05:52;101556.41;;;22.65;100.00
30967;BME280;17649;51.836;8.330;2023-09-07T08:08:57;101553.59;;;22.76;100.00
30967;BME280;17649;51.836;8.330;2023-09-07T08:11:58;101548.91;;;22.79;100.00
30967;BME280;17649;51.836;8.330;2023-09-07T08:15:00;101551.53;;;22.99;100.00
30967;BME280;17649;51.836;8.330;2023-09-07T08:18:00;101547.91;;;23.09;100.00
30967;BME280;17649;51.836;8.330;2023-09-07T08:21:01;101541.59;;;23.20;100.00
30967;BME280;17649;51.836;8.330;2023-09-07T08:24:02;101547.78;;;23.38;100.00
30967;BME280;17649;51.836;8.330;2023-09-07T08:27:03;101545.53;;;23.43;100.00
30967;BME280;17649;51.836;8.330;2023-09-07T08:30:04;101541.63;;;23.47;100.00
30967;BME280;17649;51.836;8.330;2023-09-07T08:33:06;101544.94;;;23.59;100.00
30967;BME280;17649;51.836;8.330;2023-09-07T08:36:06;101535.31;;;23.68;100.00
30967;BME280;17649;51.836;8.330;2023-09-07T08:39:08;101542.16;;;23.61;100.00
30967;BME280;17649;51.836;8.330;2023-09-07T08:42:12;101537.53;;;23.90;100.00
30967;BME280;17649;51.836;8.330;2023-09-07T08:45:14;101536.66;;;23.99;100.00
30967;BME280;17649;51.836;8.330;2023-09-07T08:48:20;101534.84;;;24.18;100.00
30967;BME280;17649;51.836;8.330;2023-09-07T08:51:21;101531.97;;;24.29;100.00
30967;BME280;17649;51.836;8.330;2023-09-07T08:54:23;101531.09;;;24.38;100.00
30967;BME280;17649;51.836;8.330;2023-09-07T08:57:24;101528.88;;;24.51;100.00
30967;BME280;17649;51.836;8.330;2023-09-07T09:00:25;101531.59;;;24.59;100.00
30967;BME280;17649;51.836;8.330;2023-09-07T09:03:25;101527.94;;;24.78;100.00
30967;BME280;17649;51.836;8.330;2023-09-07T09:06:27;101519.84;;;24.80;100.00
30967;BME280;17649;51.836;8.330;2023-09-07T09:09:29;101527.16;;;24.86;100.00
30967;BME280;17649;51.836;8.330;2023-09-07T09:12:29;101512.94;;;25.13;100.00
30967;BME280;17649;51.836;8.330;2023-09-07T09:15:30;101512.19;;;25.28;100.00
30967;BME280;17649;51.836;8.330;2023-09-07T09:18:33;101511.06;;;25.31;100.00
30967;BME280;17649;51.836;8.330;2023-09-07T09:21:33;101509.25;;;25.32;100.00
30967;BME280;17649;51.836;8.330;2023-09-07T09:24:34;101514.41;;;25.41;100.00
30967;BME280;17649;51.836;8.330;2023-09-07T09:27:35;101507.91;;;25.70;100.00
30967;BME280;17649;51.836;8.330;2023-09-07T09:30:37;101513.00;;;25.63;100.00
30967;BME280;17649;51.836;8.330;2023-09-07T09:33:41;101504.56;;;25.68;100.00
30967;BME280;17649;51.836;8.330;2023-09-07T09:36:42;101499.16;;;25.77;100.00
30967;BME280;17649;51.836;8.330;2023-09-07T09:39:43;101501.47;;;25.89;100.00
30967;BME280;17649;51.836;8.330;2023-09-07T09:42:45;101495.38;;;25.96;100.00
30967;BME280;17649;51.836;8.330;2023-09-07T09:45:45;101500.66;;;25.88;100.00
30967;BME280;17649;51.836;8.330;2023-09-07T09:48:47;101498.84;;;25.97;100.00
30967;BME280;17649;51.836;8.330;2023-09-07T09:51:50;101500.53;;;26.22;100.00
30967;BME280;17649;51.836;8.330;2023-09-07T09:54:52;101497.91;;;26.22;100.00
30967;BME280;17649;51.836;8.330;2023-09-07T09:57:52;101486.13;;;26.41;100.00
30967;BME280;17649;51.836;8.330;2023-09-07T10:00:55;101487.63;;;26.52;100.00
30967;BME280;17649;51.836;8.330;2023-09-07T10:03:56;101482.97;;;26.62;100.00
30967;BME280;17649;51.836;8.330;2023-09-07T10:07:00;101477.81;;;26.60;100.00
30967;BME280;17649;51.836;8.330;2023-09-07T10:10:01;101480.03;;;26.49;100.00
30967;BME280;17649;51.836;8.330;2023-09-07T10:13:02;101471.50;;;26.61;100.00
30967;BME280;17649;51.836;8.330;2023-09-07T10:16:05;101468.81;;;26.78;100.00
30967;BME280;17649;51.836;8.330;2023-09-07T10:19:15;101471.28;;;27.03;100.00
30967;BME280;17649;51.836;8.330;2023-09-07T10:22:21;101466.41;;;27.23;100.00
30967;BME280;17649;51.836;8.330;2023-09-07T10:25:23;101461.69;;;27.33;100.00
30967;BME280;17649;51.836;8.330;2023-09-07T10:28:25;101465.09;;;27.50;100.00
30967;BME280;17649;51.836;8.330;2023-09-07T10:31:26;101460.19;;;27.62;100.00
30967;BME280;17649;51.836;8.330;2023-09-07T10:34:35;101459.25;;;27.86;100.00
30967;BME280;17649;51.836;8.330;2023-09-07T10:37:39;101455.22;;;27.90;100.00
30967;BME280;17649;51.836;8.330;2023-09-07T10:40:39;101453.03;;;27.93;100.00
30967;BME280;17649;51.836;8.330;2023-09-07T10:43:53;101457.13;;;28.04;100.00
30967;BME280;17649;51.836;8.330;2023-09-07T10:46:55;101449.47;;;28.24;100.00
30967;BME280;17649;51.836;8.330;2023-09-07T10:49:57;101448.06;;;28.51;100.00
30967;BME280;17649;51.836;8.330;2023-09-07T10:52:57;101450.13;;;28.78;100.00
30967;BME280;17649;51.836;8.330;2023-09-07T10:56:04;101448.28;;;29.08;100.00
30967;BME280;17649;51.836;8.330;2023-09-07T11:02:08;101438.97;;;29.34;100.00
30967;BME280;17649;51.836;8.330;2023-09-07T11:05:09;101430.19;;;29.55;100.00
30967;BME280;17649;51.836;8.330;2023-09-07T11:08:10;101422.72;;;29.65;100.00
30967;BME280;17649;51.836;8.330;2023-09-07T11:11:10;101428.66;;;29.88;100.00
30967;BME280;17649;51.836;8.330;2023-09-07T11:14:11;101415.91;;;30.33;100.00
30967;BME280;17649;51.836;8.330;2023-09-07T11:17:11;101413.66;;;31.67;100.00
30967;BME280;17649;51.836;8.330;2023-09-07T11:20:12;101404.00;;;34.04;92.03
30967;BME280;17649;51.836;8.330;2023-09-07T11:23:12;101402.63;;;35.72;57.11
30967;BME280;17649;51.836;8.330;2023-09-07T11:26:13;101387.03;;;37.24;53.20
30967;BME280;17649;51.836;8.330;2023-09-07T11:29:15;101390.94;;;37.79;52.33
30967;BME280;17649;51.836;8.330;2023-09-07T11:32:16;101382.75;;;38.68;44.80
30967;BME280;17649;51.836;8.330;2023-09-07T11:35:21;101379.19;;;39.11;44.43
30967;BME280;17649;51.836;8.330;2023-09-07T11:38:22;101381.03;;;40.02;41.13
30967;BME280;17649;51.836;8.330;2023-09-07T11:41:22;101383.75;;;39.64;37.86
30967;BME280;17649;51.836;8.330;2023-09-07T11:44:22;101387.25;;;39.06;38.69
30967;BME280;17649;51.836;8.330;2023-09-07T11:47:23;101380.44;;;39.03;39.01
30967;BME280;17649;51.836;8.330;2023-09-07T11:50:24;101376.41;;;38.57;39.00
30967;BME280;17649;51.836;8.330;2023-09-07T11:53:30;101384.72;;;39.21;38.04
30967;BME280;17649;51.836;8.330;2023-09-07T11:56:30;101379.50;;;39.74;37.17
30967;BME280;17649;51.836;8.330;2023-09-07T11:59:30;101362.31;;;40.47;36.98
30967;BME280;17649;51.836;8.330;2023-09-07T12:02:32;101369.00;;;41.74;34.52
30967;BME280;17649;51.836;8.330;2023-09-07T12:05:33;101369.56;;;41.35;34.06
30967;BME280;17649;51.836;8.330;2023-09-07T12:08:33;101373.06;;;41.86;32.34
30967;BME280;17649;51.836;8.330;2023-09-07T12:11:33;101379.34;;;41.72;32.26
30967;BME280;17649;51.836;8.330;2023-09-07T12:14:34;101377.44;;;41.47;31.76
30967;BME280;17649;51.836;8.330;2023-09-07T12:17:34;101367.13;;;41.54;32.35
30967;BME280;17649;51.836;8.330;2023-09-07T12:20:35;101357.06;;;41.14;32.93
30967;BME280;17649;51.836;8.330;2023-09-07T12:23:35;101357.03;;;41.90;32.42
30967;BME280;17649;51.836;8.330;2023-09-07T12:26:35;101356.09;;;40.00;32.81
30967;BME280;17649;51.836;8.330;2023-09-07T12:29:36;101352.44;;;40.31;34.03
30967;BME280;17649;51.836;8.330;2023-09-07T12:32:36;101345.00;;;40.64;33.79
30967;BME280;17649;51.836;8.330;2023-09-07T12:35:36;101343.47;;;41.19;32.35
30967;BME280;17649;51.836;8.330;2023-09-07T12:38:37;101341.91;;;42.38;31.25
30967;BME280;17649;51.836;8.330;2023-09-07T12:41:38;101353.00;;;41.67;31.61
30967;BME280;17649;51.836;8.330;2023-09-07T12:44:38;101345.09;;;41.15;30.10
30967;BME280;17649;51.836;8.330;2023-09-07T12:47:39;101343.38;;;42.15;30.72
30967;BME280;17649;51.836;8.330;2023-09-07T12:50:40;101341.34;;;42.46;31.28
30967;BME280;17649;51.836;8.330;2023-09-07T12:53:40;101334.91;;;43.50;29.42
30967;BME280;17649;51.836;8.330;2023-09-07T12:56:41;101341.88;;;44.56;29.16
30967;BME280;17649;51.836;8.330;2023-09-07T12:59:41;101330.72;;;44.72;30.08
30967;BME280;17649;51.836;8.330;2023-09-07T13:02:42;101331.47;;;45.29;30.05
30967;BME280;17649;51.836;8.330;2023-09-07T13:05:43;101323.88;;;44.55;29.55
30967;BME280;17649;51.836;8.330;2023-09-07T13:08:44;101322.94;;;44.65;29.14
30967;BME280;17649;51.836;8.330;2023-09-07T13:11:45;101309.84;;;45.00;27.64
30967;BME280;17649;51.836;8.330;2023-09-07T13:14:45;101317.25;;;43.47;27.86
30967;BME280;17649;51.836;8.330;2023-09-07T13:17:45;101310.03;;;43.85;28.51
30967;BME280;17649;51.836;8.330;2023-09-07T13:20:46;101309.09;;;43.71;28.30
30967;BME280;17649;51.836;8.330;2023-09-07T13:23:48;101303.06;;;43.74;27.76
30967;BME280;17649;51.836;8.330;2023-09-07T13:26:50;101310.78;;;44.33;28.19
30967;BME280;17649;51.836;8.330;2023-09-07T13:29:51;101309.56;;;44.64;28.83
30967;BME280;17649;51.836;8.330;2023-09-07T13:32:52;101312.88;;;43.17;28.89
30967;BME280;17649;51.836;8.330;2023-09-07T13:35:53;101305.16;;;42.46;32.83
30967;BME280;17649;51.836;8.330;2023-09-07T13:38:53;101291.94;;;44.37;30.54
30967;BME280;17649;51.836;8.330;2023-09-07T13:41:56;101297.13;;;44.15;30.16
30967;BME280;17649;51.836;8.330;2023-09-07T13:48:54;101288.53;;;45.15;27.93
30967;BME280;17649;51.836;8.330;2023-09-07T13:51:54;101279.63;;;44.40;29.08
30967;BME280;17649;51.836;8.330;2023-09-07T13:54:54;101285.66;;;45.07;28.46
30967;BME280;17649;51.836;8.330;2023-09-07T13:57:55;101288.75;;;44.30;28.43
30967;BME280;17649;51.836;8.330;2023-09-07T14:00:55;101285.78;;;45.62;28.91
30967;BME280;17649;51.836;8.330;2023-09-07T14:03:56;101289.50;;;45.38;27.55
30967;BME280;17649;51.836;8.330;2023-09-07T14:06:56;101280.00;;;45.63;28.06
30967;BME280;17649;51.836;8.330;2023-09-07T14:09:57;101284.03;;;46.21;27.36
30967;BME280;17649;51.836;8.330;2023-09-07T14:12:57;101280.03;;;45.17;26.26
30967;BME280;17649;51.836;8.330;2023-09-07T14:15:57;101286.50;;;45.81;26.95
30967;BME280;17649;51.836;8.330;2023-09-07T14:18:58;101277.78;;;46.06;26.33
30967;BME280;17649;51.836;8.330;2023-09-07T14:21:58;101273.09;;;44.92;27.39
30967;BME280;17649;51.836;8.330;2023-09-07T14:24:58;101269.13;;;45.17;27.32
30967;BME280;17649;51.836;8.330;2023-09-07T14:27:59;101269.84;;;46.19;27.24
30967;BME280;17649;51.836;8.330;2023-09-07T14:31:00;101269.00;;;44.57;28.40
30967;BME280;17649;51.836;8.330;2023-09-07T14:34:04;101277.69;;;45.43;26.96
30967;BME280;17649;51.836;8.330;2023-09-07T14:37:04;101269.38;;;45.62;26.97
30967;BME280;17649;51.836;8.330;2023-09-07T14:40:05;101272.81;;;45.40;27.72
30967;BME280;17649;51.836;8.330;2023-09-07T14:43:07;101265.66;;;45.71;26.13
30967;BME280;17649;51.836;8.330;2023-09-07T14:46:09;101268.06;;;45.32;26.48
30967;BME280;17649;51.836;8.330;2023-09-07T14:49:09;101270.84;;;43.81;27.50
30967;BME280;17649;51.836;8.330;2023-09-07T14:52:09;101263.59;;;43.42;27.82
30967;BME280;17649;51.836;8.330;2023-09-07T14:55:11;101269.13;;;44.84;27.91
30967;BME280;17649;51.836;8.330;2023-09-07T14:58:12;101260.34;;;46.97;27.82
30967;BME280;17649;51.836;8.330;2023-09-07T15:01:12;101265.88;;;46.25;24.90
30967;BME280;17649;51.836;8.330;2023-09-07T15:04:12;101265.81;;;46.16;25.72
30967;BME280;17649;51.836;8.330;2023-09-07T15:07:13;101247.84;;;46.82;24.99
30967;BME280;17649;51.836;8.330;2023-09-07T15:10:14;101252.28;;;47.23;25.71
30967;BME280;17649;51.836;8.330;2023-09-07T15:13:14;101247.31;;;47.82;23.88
30967;BME280;17649;51.836;8.330;2023-09-07T15:16:15;101244.06;;;47.63;24.18
30967;BME280;17649;51.836;8.330;2023-09-07T15:19:15;101242.66;;;47.03;24.18
30967;BME280;17649;51.836;8.330;2023-09-07T15:22:15;101240.25;;;48.16;23.70
30967;BME280;17649;51.836;8.330;2023-09-07T15:25:16;101233.63;;;47.03;24.12
30967;BME280;17649;51.836;8.330;2023-09-07T15:28:18;101232.84;;;44.46;25.37
30967;BME280;17649;51.836;8.330;2023-09-07T15:31:18;101238.63;;;39.69;30.05
30967;BME280;17649;51.836;8.330;2023-09-07T15:34:18;101252.19;;;36.51;34.08
30967;BME280;17649;51.836;8.330;2023-09-07T15:37:19;101245.81;;;34.88;39.03
30967;BME280;17649;51.836;8.330;2023-09-07T15:40:19;101244.97;;;33.66;43.46
30967;BME280;17649;51.836;8.330;2023-09-07T15:43:19;101244.38;;;32.82;52.52
30967;BME280;17649;51.836;8.330;2023-09-07T15:46:20;101254.53;;;32.16;59.49
30967;BME280;17649;51.836;8.330;2023-09-07T15:49:21;101243.91;;;31.69;65.56
30967;BME280;17649;51.836;8.330;2023-09-07T15:52:21;101242.06;;;31.77;71.74